createdAt,value
2023-05-03T00:00:01.888Z,10.81
2023-05-03T00:05:13.303Z,10.46
2023-05-03T00:10:19.621Z,10.51
2023-05-03T00:15:24.793Z,10.79
2023-05-03T00:20:32.407Z,10.92
2023-05-03T00:25:38.366Z,10.99
2023-05-03T00:30:43.420Z,10.97
2023-05-03T00:35:51.284Z,10.43
2023-05-03T00:40:57.761Z,10.74
2023-05-03T00:46:15.980Z,10.34
2023-05-03T00:51:26.466Z,10.66
2023-05-03T00:56:38.026Z,10.70
2023-05-03T01:01:54.453Z,10.45
2023-05-03T01:07:12.100Z,10.64
2023-05-03T01:12:33.440Z,10.55
2023-05-03T01:17:43.034Z,10.52
2023-05-03T01:23:09.979Z,10.56
2023-05-03T01:28:17.547Z,10.52
2023-05-03T01:33:46.601Z,10.07
2023-05-03T01:38:53.829Z,9.93
2023-05-03T01:44:02.394Z,10.13
2023-05-03T01:49:07.631Z,9.79
2023-05-03T01:54:12.816Z,9.78
2023-05-03T01:59:20.525Z,9.66
2023-05-03T02:04:25.817Z,9.87
2023-05-03T02:09:32.066Z,9.79
2023-05-03T02:14:41.322Z,9.60
2023-05-03T02:19:47.341Z,9.93
2023-05-03T02:24:52.474Z,9.79
2023-05-03T02:30:00.353Z,9.36
2023-05-03T02:35:06.755Z,9.34
2023-05-03T02:40:13.323Z,9.24
2023-05-03T02:45:23.763Z,9.56
2023-05-03T02:50:28.917Z,9.67
2023-05-03T02:55:34.545Z,9.47
2023-05-03T03:00:43.092Z,9.36
2023-05-03T03:05:49.123Z,9.33
2023-05-03T03:10:54.457Z,9.61
2023-05-03T03:16:02.474Z,9.09
2023-05-03T03:21:09.100Z,9.04
2023-05-03T03:26:15.006Z,9.24
2023-05-03T03:31:23.317Z,9.14
2023-05-03T03:36:28.781Z,9.43
2023-05-03T03:41:37.120Z,9.08
2023-05-03T03:46:45.051Z,8.85
2023-05-03T03:51:50.547Z,9.01
2023-05-03T03:56:56.816Z,8.85
2023-05-03T04:02:05.300Z,9.03
2023-05-03T04:07:12.865Z,9.09
2023-05-03T04:12:18.420Z,9.05
2023-05-03T04:17:27.087Z,9.21
2023-05-03T04:22:33.464Z,9.03
2023-05-03T04:27:38.892Z,9.26
2023-05-03T04:32:47.870Z,9.12
2023-05-03T04:37:55.629Z,9.46
2023-05-03T04:43:04.627Z,9.31
2023-05-03T04:48:15.418Z,9.27
2023-05-03T04:53:23.733Z,9.03
2023-05-03T04:58:47.466Z,9.70
2023-05-03T05:04:02.812Z,9.05
2023-05-03T05:09:24.835Z,9.35
2023-05-03T05:14:35.094Z,9.46
2023-05-03T05:19:47.450Z,9.19
2023-05-03T05:24:53.697Z,9.56
2023-05-03T05:30:01.432Z,9.58
2023-05-03T05:35:19.243Z,10.36
2023-05-03T05:40:29.080Z,9.78
2023-05-03T05:45:39.264Z,9.62
2023-05-03T05:50:49.244Z,10.62
2023-05-03T05:55:57.353Z,10.76
2023-05-03T06:01:09.001Z,10.40
2023-05-03T06:06:20.383Z,9.88
2023-05-03T06:11:29.261Z,10.55
2023-05-03T06:16:37.280Z,12.17
2023-05-03T06:21:48.228Z,11.50
2023-05-03T06:26:56.012Z,12.61
2023-05-03T06:32:04.740Z,11.97
2023-05-03T06:37:14.298Z,13.98
2023-05-03T06:42:22.253Z,12.88
2023-05-03T06:47:30.785Z,13.09
2023-05-03T06:52:40.128Z,15.24
2023-05-03T06:57:47.918Z,16.78
2023-05-03T07:02:53.204Z,15.09
2023-05-03T07:08:03.993Z,18.62
2023-05-03T07:13:09.186Z,15.41
2023-05-03T07:18:14.513Z,16.50
2023-05-03T07:23:22.888Z,16.49
2023-05-03T07:28:30.498Z,16.04
2023-05-03T07:33:37.856Z,15.53
2023-05-03T07:38:52.976Z,15.94
2023-05-03T07:44:01.533Z,16.75
2023-05-03T08:00:53.711Z,15.00
2023-05-03T08:05:59.820Z,15.29
2023-05-03T08:11:07.002Z,15.92
2023-05-03T08:16:16.875Z,14.67
2023-05-03T08:21:25.014Z,14.50
2023-05-03T08:26:30.374Z,14.71
2023-05-03T08:31:39.996Z,16.31
2023-05-03T08:36:45.239Z,12.63
2023-05-03T08:41:54.099Z,13.88
2023-05-03T08:47:06.658Z,15.91
2023-05-03T08:52:24.769Z,13.98
2023-05-03T08:57:38.641Z,12.79
2023-05-03T09:02:50.482Z,14.71
2023-05-03T09:08:05.691Z,14.68
2023-05-03T09:13:13.700Z,15.27
2023-05-03T09:18:29.711Z,14.55
2023-05-03T09:23:35.218Z,14.27
2023-05-03T09:28:45.075Z,16.24
2023-05-03T09:33:54.132Z,14.69
2023-05-03T09:38:59.473Z,14.55
2023-05-03T09:44:05.933Z,15.78
2023-05-03T09:49:18.318Z,15.34
2023-05-03T09:54:32.074Z,15.02
2023-05-03T09:59:39.564Z,14.89
2023-05-03T10:05:01.575Z,15.92
2023-05-03T10:10:08.197Z,15.69
2023-05-03T10:15:16.536Z,16.63
2023-05-03T10:20:31.967Z,16.63
2023-05-03T10:25:43.122Z,15.67
2023-05-03T10:30:50.459Z,16.31
2023-05-03T10:35:59.371Z,16.47
2023-05-03T10:41:07.401Z,15.58
2023-05-03T10:46:33.431Z,16.97
2023-05-03T10:51:43.877Z,15.51
2023-05-03T10:57:00.529Z,15.15
2023-05-03T11:02:06.353Z,15.33
2023-05-03T11:07:23.649Z,16.49
2023-05-03T11:12:29.609Z,16.01
2023-05-03T11:17:36.958Z,15.93
2023-05-03T11:22:51.619Z,17.42
2023-05-03T11:28:02.320Z,17.07
2023-05-03T11:33:10.694Z,16.55
2023-05-03T11:38:22.375Z,15.67
2023-05-03T11:43:42.682Z,15.31
2023-05-03T11:48:51.152Z,15.84
2023-05-03T11:54:02.859Z,15.59
2023-05-03T11:59:15.520Z,16.36
2023-05-03T12:04:21.521Z,16.99
2023-05-03T12:09:31.760Z,16.55
2023-05-03T12:15:00.387Z,16.10
2023-05-03T12:25:39.586Z,16.68
2023-05-03T12:30:49.040Z,16.79
2023-05-03T12:35:59.082Z,17.26
2023-05-03T12:41:09.181Z,17.46
2023-05-03T12:46:33.234Z,17.02
2023-05-03T12:51:42.723Z,17.57
2023-05-03T12:56:54.841Z,16.69
2023-05-03T13:07:13.468Z,16.85
2023-05-03T13:12:22.713Z,15.54
2023-05-03T13:17:27.900Z,15.61
2023-05-03T13:22:36.037Z,16.18
2023-05-03T13:27:53.585Z,15.90
2023-05-03T13:32:58.960Z,16.52
2023-05-03T13:38:04.280Z,16.97
2023-05-03T13:43:12.225Z,16.81
2023-05-03T13:48:19.194Z,17.12
2023-05-03T13:53:26.546Z,17.05
2023-05-03T13:58:39.307Z,16.15
2023-05-03T14:03:45.592Z,16.99
2023-05-03T14:08:51.637Z,16.15
2023-05-03T14:14:03.415Z,17.29
2023-05-03T14:19:11.082Z,16.75
2023-05-03T14:24:18.925Z,16.80
2023-05-03T14:29:31.744Z,17.33
2023-05-03T14:34:37.422Z,17.06
2023-05-03T14:39:43.163Z,17.29
2023-05-03T14:44:57.076Z,16.04
2023-05-03T14:50:03.019Z,17.03
2023-05-03T14:55:11.207Z,16.74
2023-05-03T15:00:20.155Z,16.88
2023-05-03T15:05:25.888Z,17.27
2023-05-03T15:10:32.226Z,17.14
2023-05-03T15:15:41.298Z,16.38
2023-05-03T15:20:46.795Z,17.21
2023-05-03T15:25:54.492Z,17.13
2023-05-03T15:31:02.466Z,16.80
2023-05-03T15:36:11.503Z,17.03
2023-05-03T15:41:16.806Z,17.20
2023-05-03T15:46:25.026Z,16.47
2023-05-03T15:51:31.807Z,16.61
2023-05-03T15:56:37.955Z,17.05
2023-05-03T16:01:45.966Z,16.32
2023-05-03T16:06:51.755Z,16.28
2023-05-03T16:11:57.922Z,15.46
2023-05-03T16:17:10.933Z,15.85
2023-05-03T16:22:17.301Z,16.38
2023-05-03T16:27:24.707Z,15.76
2023-05-03T16:32:36.340Z,15.90
2023-05-03T16:37:42.182Z,16.02
2023-05-03T16:42:47.404Z,15.40
2023-05-03T16:47:55.611Z,15.72
2023-05-03T16:53:01.159Z,16.01
2023-05-03T16:58:15.739Z,15.71
2023-05-03T17:03:25.489Z,15.63
2023-05-03T17:08:31.287Z,15.36
2023-05-03T17:13:37.097Z,15.26
2023-05-03T17:18:46.431Z,15.40
2023-05-03T17:23:52.473Z,15.26
2023-05-03T17:28:57.739Z,15.19
2023-05-03T17:34:05.941Z,15.17
2023-05-03T17:39:11.329Z,14.68
2023-05-03T17:44:17.606Z,14.72
2023-05-03T17:49:34.349Z,14.90
2023-05-03T17:54:43.382Z,14.61
2023-05-03T17:59:52.049Z,14.56
2023-05-03T18:05:00.381Z,14.34
2023-05-03T18:10:08.991Z,14.35
2023-05-03T18:15:18.981Z,14.30
2023-05-03T18:20:27.289Z,14.15
2023-05-03T18:25:34.023Z,13.80
2023-05-03T18:30:41.954Z,13.79
2023-05-03T18:35:55.318Z,13.81
2023-05-03T18:41:00.508Z,13.73
2023-05-03T18:46:08.038Z,13.54
2023-05-03T18:51:16.843Z,13.32
2023-05-03T18:56:24.540Z,13.18
2023-05-03T19:01:30.297Z,13.32
2023-05-03T19:06:41.055Z,13.23
2023-05-03T19:11:47.842Z,13.04
2023-05-03T19:16:53.170Z,13.10
2023-05-03T19:22:03.413Z,13.27
2023-05-03T19:27:08.761Z,12.88
2023-05-03T19:32:14.578Z,12.68
2023-05-03T19:37:24.986Z,12.29
2023-05-03T19:42:33.122Z,12.14
2023-05-03T19:47:41.830Z,11.82
2023-05-03T19:52:56.515Z,11.76
2023-05-03T19:58:01.996Z,11.54
2023-05-03T20:03:10.189Z,11.68
2023-05-03T20:08:18.970Z,11.42
2023-05-03T20:13:26.752Z,11.25
2023-05-03T20:18:39.106Z,11.02
2023-05-03T20:23:51.016Z,10.74
2023-05-03T20:28:56.218Z,10.80
2023-05-03T20:34:01.739Z,10.72
2023-05-03T20:39:11.671Z,10.59
2023-05-03T20:44:19.185Z,10.36
2023-05-03T20:49:25.269Z,10.26
2023-05-03T20:54:33.837Z,10.08
2023-05-03T20:59:39.587Z,9.99
2023-05-03T21:04:45.156Z,9.88
2023-05-03T21:09:56.645Z,9.65
2023-05-03T21:15:02.696Z,9.58
2023-05-03T21:20:16.400Z,9.58
2023-05-03T21:25:29.035Z,9.48
2023-05-03T21:30:35.038Z,9.37
2023-05-03T21:35:40.550Z,9.07
2023-05-03T21:40:49.732Z,8.76
2023-05-03T21:45:56.917Z,8.66
2023-05-03T21:51:02.240Z,8.23
2023-05-03T21:56:11.088Z,8.59
2023-05-03T22:01:20.324Z,8.42
2023-05-03T22:06:27.158Z,8.47
2023-05-03T22:11:35.979Z,8.51
2023-05-03T22:16:43.009Z,8.57
2023-05-03T22:21:50.349Z,8.31
2023-05-03T22:27:03.416Z,8.17
2023-05-03T22:32:13.522Z,8.02
2023-05-03T22:37:19.624Z,7.86
2023-05-03T22:42:28.134Z,8.06
2023-05-03T22:47:33.517Z,8.27
2023-05-03T22:52:40.468Z,8.03
2023-05-03T22:57:50.803Z,7.95
2023-05-03T23:02:58.408Z,7.89
2023-05-03T23:08:03.857Z,7.54
2023-05-03T23:13:17.236Z,7.49
2023-05-03T23:18:24.592Z,7.26
2023-05-03T23:23:31.538Z,7.52
2023-05-03T23:28:39.545Z,7.23
2023-05-03T23:33:45.168Z,7.30
2023-05-03T23:38:53.453Z,7.28
2023-05-03T23:44:06.262Z,7.21
2023-05-03T23:49:12.752Z,6.83
2023-05-03T23:54:21.464Z,7.06
2023-05-03T23:59:29.368Z,6.98
